Time;durP1;ratioP1;P1;durP2;ratioP2;P2;SDS_P1;SDS_P2;PMS_P1;PMS_P2;Temp;Humidity;BMP_temperature;BMP_pressure;BME280_temperature;BME280_humidity;BME280_pressure;Samples;Min_cycle;Max_cycle;Signal;HPM_P1;HPM_P2
2023/03/19 00:02:50;;;;;;;13.00;11.68;;;;;;;10.46;100.00;100988.91;10421853;28;20034;-75
2023/03/19 00:07:50;;;;;;;12.25;11.00;;;;;;;10.38;100.00;100999.84;10421154;28;20436;-76
2023/03/19 00:12:51;;;;;;;16.40;12.45;;;;;;;10.36;100.00;101012.72;10421646;28;20100;-76
2023/03/19 00:17:51;;;;;;;13.95;12.52;;;;;;;10.20;100.00;101008.38;10421886;28;20032;-75
2023/03/19 00:22:51;;;;;;;15.65;12.93;;;;;;;10.04;100.00;101005.09;10421467;28;20048;-77
2023/03/19 00:27:53;;;;;;;20.83;14.02;;;;;;;9.94;100.00;101008.94;10420304;28;20069;-77
2023/03/19 00:32:54;;;;;;;14.45;13.00;;;;;;;9.86;100.00;101022.59;10420891;28;20041;-76
2023/03/19 00:37:54;;;;;;;18.42;14.30;;;;;;;9.84;100.00;101029.22;10405035;28;20029;-79
2023/03/19 00:42:55;;;;;;;17.65;14.43;;;;;;;9.71;100.00;101027.19;10433645;28;20061;-76
2023/03/19 00:47:56;;;;;;;16.95;13.35;;;;;;;9.51;100.00;101016.13;10421579;28;20037;-78
2023/03/19 00:52:56;;;;;;;16.20;13.27;;;;;;;9.36;100.00;101031.50;10420598;28;20057;-78
2023/03/19 00:57:57;;;;;;;17.90;14.02;;;;;;;9.27;100.00;101033.44;10420538;28;20504;-77
2023/03/19 01:02:57;;;;;;;22.52;15.73;;;;;;;9.11;100.00;101029.03;10421091;28;20049;-77
2023/03/19 01:07:58;;;;;;;28.05;16.08;;;;;;;9.13;100.00;101031.56;10418087;28;20033;-75
2023/03/19 01:12:58;;;;;;;30.15;17.20;;;;;;;9.14;100.00;101038.66;10419637;28;20087;-76
2023/03/19 01:17:59;;;;;;;22.45;18.13;;;;;;;9.17;100.00;101041.81;10420447;28;20495;-77
2023/03/19 01:23:00;;;;;;;25.25;16.73;;;;;;;9.11;100.00;101047.13;10419845;28;20036;-77
2023/03/19 01:28:01;;;;;;;25.77;17.30;;;;;;;8.92;100.00;101045.78;10417777;28;20098;-76
2023/03/19 01:33:01;;;;;;;21.42;17.02;;;;;;;8.78;100.00;101040.16;10416592;28;20040;-76
2023/03/19 01:38:02;;;;;;;23.52;18.58;;;;;;;8.72;100.00;101040.06;10418300;28;20096;-76
2023/03/19 01:43:05;;;;;;;21.55;16.88;;;;;;;8.63;100.00;101041.16;10418116;28;20076;-76
2023/03/19 01:48:06;;;;;;;22.70;17.23;;;;;;;8.54;100.00;101043.06;10418268;28;20373;-77
2023/03/19 01:53:07;;;;;;;24.73;15.98;;;;;;;8.51;100.00;101041.56;10399688;28;20036;-76
2023/03/19 01:58:07;;;;;;;21.13;15.45;;;;;;;8.49;100.00;101037.38;10416761;28;20105;-77
2023/03/19 02:03:08;;;;;;;25.10;16.02;;;;;;;8.43;100.00;101041.63;10382243;28;20033;-76
2023/03/19 02:08:10;;;;;;;23.52;14.60;;;;;;;8.37;100.00;101045.03;10414659;28;20064;-76
2023/03/19 02:13:11;;;;;;;15.60;12.80;;;;;;;8.32;100.00;101052.81;10404537;28;20032;-76
2023/03/19 02:18:11;;;;;;;18.00;14.30;;;;;;;8.33;100.00;101049.94;10416005;28;20384;-76
2023/03/19 02:23:22;;;;;;;22.23;15.38;;;;;;;8.35;100.00;101041.66;10397711;28;20057;-76
2023/03/19 02:28:23;;;;;;;19.05;13.00;;;;;;;8.48;100.00;101038.38;10398039;28;20041;-77
2023/03/19 02:33:23;;;;;;;16.55;14.48;;;;;;;8.66;100.00;101052.41;10397199;28;20137;-77
2023/03/19 02:38:24;;;;;;;20.27;12.98;;;;;;;8.75;100.00;101045.94;10415701;28;20033;-82
2023/03/19 02:43:26;;;;;;;24.20;16.17;;;;;;;8.81;100.00;101050.59;10383936;28;20017;-82
2023/03/19 02:48:28;;;;;;;21.63;16.20;;;;;;;8.85;100.00;101054.63;10398942;28;20120;-82
2023/03/19 02:53:30;;;;;;;18.23;15.52;;;;;;;8.88;100.00;101048.00;10397696;28;20030;-82
2023/03/19 02:58:50;;;;;;;20.85;17.88;;;;;;;8.85;100.00;101057.31;10413895;28;20080;-81
2023/03/19 03:03:52;;;;;;;22.75;18.83;;;;;;;8.76;100.00;101060.28;10432279;28;20040;-82
2023/03/19 03:08:54;;;;;;;26.38;18.05;;;;;;;8.76;100.00;101062.97;10397445;28;20116;-82
2023/03/19 03:13:57;;;;;;;31.88;19.08;;;;;;;8.82;100.00;101054.13;10399118;28;20041;-81
2023/03/19 03:19:01;;;;;;;19.58;16.48;;;;;;;8.83;100.00;101051.25;10404458;28;20484;-81
2023/03/19 03:24:09;;;;;;;25.00;18.73;;;;;;;8.81;100.00;101057.88;10390292;28;20056;-82
2023/03/19 03:29:10;;;;;;;30.90;21.50;;;;;;;8.75;100.00;101058.59;10422218;28;20040;-81
2023/03/19 03:34:13;;;;;;;26.15;20.85;;;;;;;8.73;100.00;101052.53;10428084;28;20354;-81
2023/03/19 03:39:15;;;;;;;27.15;20.00;;;;;;;8.69;100.00;101056.63;10423539;28;20125;-80
2023/03/19 03:44:16;;;;;;;28.77;22.05;;;;;;;8.58;100.00;101056.03;10387710;28;20077;-79
2023/03/19 03:49:17;;;;;;;38.42;25.30;;;;;;;8.54;100.00;101061.97;10405417;28;20083;-81
2023/03/19 03:54:18;;;;;;;38.53;26.73;;;;;;;8.44;100.00;101056.81;10387881;28;20483;-80
2023/03/19 03:59:25;;;;;;;40.50;27.63;;;;;;;8.49;100.00;101069.78;10403704;28;20099;-80
2023/03/19 04:04:26;;;;;;;33.30;25.65;;;;;;;8.39;100.00;101069.97;10406361;28;20025;-79
2023/03/19 04:09:36;;;;;;;38.47;24.73;;;;;;;8.38;100.00;101081.81;10423930;28;20033;-80
2023/03/19 04:14:36;;;;;;;36.75;25.08;;;;;;;8.30;100.00;101087.22;10421795;28;20087;-80
2023/03/19 04:19:42;;;;;;;40.42;25.95;;;;;;;8.33;100.00;101078.78;10403597;28;20034;-80
2023/03/19 04:24:43;;;;;;;51.30;29.58;;;;;;;8.29;100.00;101077.44;10421194;28;20037;-80
2023/03/19 04:29:44;;;;;;;50.00;29.63;;;;;;;8.30;100.00;101077.28;10420024;28;20037;-79
2023/03/19 04:34:44;;;;;;;55.15;31.58;;;;;;;8.27;100.00;101085.72;10402918;28;20456;-79
2023/03/19 04:39:45;;;;;;;51.80;31.38;;;;;;;8.31;100.00;101088.91;10418475;28;20469;-80
2023/03/19 04:44:46;;;;;;;46.88;30.08;;;;;;;8.34;100.00;101107.44;10402021;28;20049;-79
2023/03/19 04:49:47;;;;;;;50.17;29.30;;;;;;;8.33;100.00;101106.59;10418338;28;20053;-80
2023/03/19 04:54:48;;;;;;;62.65;33.17;;;;;;;8.35;100.00;101112.66;10418276;28;20087;-79
2023/03/19 04:59:48;;;;;;;46.17;29.17;;;;;;;8.33;100.00;101113.88;10402151;28;20113;-79
2023/03/19 05:04:50;;;;;;;51.25;31.13;;;;;;;8.29;100.00;101126.00;10386280;28;20124;-79
2023/03/19 05:09:50;;;;;;;57.65;31.35;;;;;;;8.22;100.00;101120.47;10401785;28;20037;-78
2023/03/19 05:14:53;;;;;;;54.33;31.95;;;;;;;8.24;100.00;101133.81;10386201;28;20061;-79
2023/03/19 05:19:54;;;;;;;58.38;31.77;;;;;;;8.12;100.00;101136.88;10401786;28;20029;-79
2023/03/19 05:24:55;;;;;;;57.20;32.28;;;;;;;8.06;100.00;101140.28;10417667;28;20090;-79
2023/03/19 05:29:55;;;;;;;52.28;29.85;;;;;;;8.09;100.00;101141.78;10401997;28;20041;-78
2023/03/19 05:34:57;;;;;;;66.25;32.08;;;;;;;8.07;100.00;101139.28;10399696;28;20045;-79
2023/03/19 05:39:57;;;;;;;60.45;33.20;;;;;;;8.03;100.00;101156.81;10415694;28;20037;-78
2023/03/19 05:44:58;;;;;;;57.47;32.55;;;;;;;7.96;100.00;101161.22;10419223;28;20041;-79
2023/03/19 05:49:59;;;;;;;67.88;39.08;;;;;;;7.98;100.00;101159.22;10415676;28;20044;-79
2023/03/19 05:55:00;;;;;;;66.60;38.35;;;;;;;8.01;100.00;101158.84;10415746;28;20040;-79
2023/03/19 06:00:00;;;;;;;59.72;34.38;;;;;;;7.93;100.00;101151.63;10415632;28;20029;-78
2023/03/19 06:05:03;;;;;;;76.38;34.92;;;;;;;7.99;100.00;101147.41;10399034;28;20037;-78
2023/03/19 06:10:08;;;;;;;70.15;36.65;;;;;;;7.99;100.00;101162.75;10414319;28;20045;-78
2023/03/19 06:15:09;;;;;;;72.47;33.40;;;;;;;7.87;100.00;101175.75;10400332;28;20615;-77
2023/03/19 06:20:12;;;;;;;67.68;33.22;;;;;;;7.95;100.00;101183.00;10401459;28;20037;-79
2023/03/19 06:25:14;;;;;;;68.22;34.72;;;;;;;7.88;100.00;101189.06;10416016;28;20029;-78
2023/03/19 06:30:16;;;;;;;67.35;34.08;;;;;;;8.01;100.00;101185.81;10382196;28;20044;-78
2023/03/19 06:35:17;;;;;;;68.20;35.45;;;;;;;8.06;100.00;101186.13;10381735;28;20461;-78
2023/03/19 06:40:18;;;;;;;87.55;37.92;;;;;;;8.15;100.00;101198.56;10398982;28;20049;-78
2023/03/19 06:45:19;;;;;;;93.70;36.47;;;;;;;8.28;100.00;101210.66;10398806;28;20026;-78
2023/03/19 06:50:20;;;;;;;67.20;33.35;;;;;;;8.27;100.00;101209.00;10414719;28;20037;-79
2023/03/19 06:55:20;;;;;;;81.10;35.55;;;;;;;8.38;100.00;101212.16;10414914;28;20064;-79
2023/03/19 07:00:21;;;;;;;76.85;35.92;;;;;;;8.45;100.00;101206.91;10413852;28;20041;-76
2023/03/19 07:05:21;;;;;;;74.57;34.45;;;;;;;8.53;100.00;101216.84;10413473;28;20133;-76
2023/03/19 07:10:22;;;;;;;77.53;35.63;;;;;;;8.56;100.00;101224.59;10380689;28;20108;-74
2023/03/19 07:15:22;;;;;;;54.78;28.42;;;;;;;8.56;100.00;101224.59;10396935;28;20048;-76
2023/03/19 07:20:23;;;;;;;76.45;31.75;;;;;;;8.59;100.00;101241.25;10397430;28;20510;-76
2023/03/19 07:25:23;;;;;;;49.47;29.23;;;;;;;8.74;100.00;101249.47;10398176;28;20511;-76
2023/03/19 07:30:24;;;;;;;47.30;24.65;;;;;;;8.70;100.00;101250.81;10413877;28;20040;-79
2023/03/19 07:35:24;;;;;;;60.38;29.92;;;;;;;8.74;100.00;101260.28;10414117;28;20459;-75
2023/03/19 07:40:25;;;;;;;54.97;27.55;;;;;;;8.83;100.00;101252.94;10412919;28;20060;-79
2023/03/19 07:45:26;;;;;;;56.88;32.47;;;;;;;8.91;100.00;101252.91;10413293;28;20550;-75
2023/03/19 07:50:26;;;;;;;51.97;28.23;;;;;;;8.78;100.00;101271.56;10411941;28;20034;-75
2023/03/19 07:55:26;;;;;;;59.47;32.60;;;;;;;8.89;100.00;101263.03;10416023;28;20454;-75
2023/03/19 08:00:27;;;;;;;60.42;32.72;;;;;;;8.85;100.00;101273.34;10413044;28;20104;-75
2023/03/19 08:05:27;;;;;;;59.42;32.53;;;;;;;8.91;100.00;101279.91;10404120;28;20047;-75
2023/03/19 08:10:29;;;;;;;64.68;34.45;;;;;;;9.07;100.00;101282.53;10420163;28;20037;-75
2023/03/19 08:15:30;;;;;;;60.78;32.88;;;;;;;9.32;100.00;101288.59;10403177;28;20508;-75
2023/03/19 08:20:31;;;;;;;66.80;34.83;;;;;;;9.38;100.00;101287.06;10402306;28;20113;-75
2023/03/19 08:25:31;;;;;;;73.00;35.70;;;;;;;9.31;100.00;101296.88;10419805;28;20508;-75
2023/03/19 08:30:32;;;;;;;69.15;31.42;;;;;;;9.27;100.00;101309.91;10421845;28;20087;-75
2023/03/19 08:35:32;;;;;;;66.88;30.85;;;;;;;9.26;100.00;101312.81;10420166;28;20392;-74
2023/03/19 08:40:34;;;;;;;75.95;35.95;;;;;;;9.38;100.00;101321.31;10418663;28;20072;-75
2023/03/19 08:45:34;;;;;;;65.63;33.38;;;;;;;9.45;100.00;101312.34;10417844;28;20108;-74
2023/03/19 08:50:35;;;;;;;66.03;31.35;;;;;;;9.48;100.00;101321.94;10419014;28;20163;-74
2023/03/19 08:55:35;;;;;;;63.42;32.15;;;;;;;9.66;100.00;101335.16;10401406;28;20064;-74
2023/03/19 09:00:36;;;;;;;61.25;32.10;;;;;;;9.63;100.00;101333.66;10418417;28;20132;-74
2023/03/19 09:05:36;;;;;;;68.97;30.77;;;;;;;9.81;100.00;101343.31;10417056;28;20536;-74
2023/03/19 09:10:37;;;;;;;64.10;29.95;;;;;;;10.14;100.00;101339.28;10417594;28;20133;-75
2023/03/19 09:15:37;;;;;;;56.25;28.25;;;;;;;10.38;100.00;101343.66;10417296;28;20183;-74
2023/03/19 09:20:38;;;;;;;50.17;27.58;;;;;;;10.46;100.00;101342.72;10416857;28;20038;-75
2023/03/19 09:25:38;;;;;;;47.38;25.45;;;;;;;10.61;100.00;101345.44;10417957;28;20099;-74
2023/03/19 09:30:39;;;;;;;47.33;24.98;;;;;;;10.65;100.00;101353.00;10418148;28;20179;-75
2023/03/19 09:35:39;;;;;;;39.67;23.48;;;;;;;10.67;100.00;101355.53;10418805;28;20142;-75
2023/03/19 09:40:45;;;;;;;39.08;23.13;;;;;;;10.59;100.00;101375.44;10416144;28;20128;-74
2023/03/19 09:45:45;;;;;;;50.33;24.00;;;;;;;10.58;100.00;101381.03;10415288;28;20083;-75
2023/03/19 09:50:46;;;;;;;44.60;23.13;;;;;;;10.50;100.00;101386.50;10416106;28;20354;-74
2023/03/19 09:55:48;;;;;;;41.80;23.15;;;;;;;10.42;100.00;101395.56;10416099;28;20465;-75
2023/03/19 10:00:49;;;;;;;45.53;24.90;;;;;;;10.43;100.00;101386.41;10415395;28;20033;-74
2023/03/19 10:06:25;;;;;;;45.05;24.80;;;;;;;10.50;100.00;101400.06;10400809;28;20107;-75
2023/03/19 10:11:57;;;;;;;45.33;23.83;;;;;;;10.58;100.00;101405.41;10401145;28;20067;-74
2023/03/19 10:16:57;;;;;;;46.63;22.50;;;;;;;10.64;100.00;101410.91;10416302;28;20065;-75
2023/03/19 10:21:59;;;;;;;43.97;25.83;;;;;;;10.60;100.00;101420.44;10414129;28;20384;-74
2023/03/19 10:27:01;;;;;;;55.45;27.42;;;;;;;10.57;100.00;101428.09;10381521;28;20034;-75
2023/03/19 10:32:19;;;;;;;43.42;28.65;;;;;;;10.55;100.00;101430.97;10398739;28;20055;-76
2023/03/19 10:37:21;;;;;;;50.00;27.00;;;;;;;10.49;100.00;101423.59;10417514;28;20084;-76
2023/03/19 10:42:46;;;;;;;40.20;24.50;;;;;;;10.54;100.00;101432.00;10414864;28;20044;-74
2023/03/19 10:47:48;;;;;;;41.17;24.15;;;;;;;10.56;100.00;101439.94;10417424;28;20450;-75
2023/03/19 10:52:50;;;;;;;33.22;21.50;;;;;;;10.57;100.00;101442.47;10414346;28;20051;-75
2023/03/19 10:57:55;;;;;;;37.22;21.70;;;;;;;10.61;100.00;101438.38;10412586;28;20037;-75
2023/03/19 11:02:55;;;;;;;28.27;20.38;;;;;;;10.69;100.00;101437.47;10397551;28;20358;-75
2023/03/19 11:08:01;;;;;;;34.45;22.48;;;;;;;10.90;100.00;101432.13;10398547;28;20072;-74
2023/03/19 11:13:20;;;;;;;37.58;20.80;;;;;;;11.03;100.00;101445.03;10414040;28;20038;-74
2023/03/19 11:18:46;;;;;;;34.08;19.35;;;;;;;11.11;100.00;101444.09;10397347;28;20414;-76
2023/03/19 11:23:51;;;;;;;47.00;21.38;;;;;;;11.12;100.00;101445.78;10412457;28;20424;-76
2023/03/19 11:28:51;;;;;;;37.05;23.45;;;;;;;11.37;100.00;101444.44;10412519;28;20350;-76
2023/03/19 11:34:19;;;;;;;35.15;22.33;;;;;;;11.74;100.00;101444.44;10412250;28;20034;-75
2023/03/19 11:39:19;;;;;;;35.58;22.80;;;;;;;11.76;100.00;101462.22;10402632;28;20041;-76
2023/03/19 11:44:20;;;;;;;41.17;23.17;;;;;;;11.70;100.00;101454.00;10425946;28;20393;-75
2023/03/19 11:49:41;;;;;;;47.13;23.60;;;;;;;11.60;100.00;101459.72;10419973;28;20033;-76
2023/03/19 11:55:24;;;;;;;47.47;22.15;;;;;;;12.54;100.00;101451.53;10420521;28;20033;-77
2023/03/19 12:00:42;;;;;;;40.25;23.35;;;;;;;13.07;100.00;101454.56;10414556;28;20041;-76
2023/03/19 12:05:52;;;;;;;44.60;23.45;;;;;;;12.98;100.00;101464.75;10420095;28;20075;-75
2023/03/19 12:10:52;;;;;;;44.83;25.35;;;;;;;12.35;100.00;101466.63;10404632;28;20116;-77
2023/03/19 12:15:59;;;;;;;41.28;26.23;;;;;;;12.50;100.00;101463.78;10423094;28;20117;-76
2023/03/19 12:21:05;;;;;;;49.42;26.23;;;;;;;12.85;100.00;101467.41;10418915;28;20063;-76
2023/03/19 12:26:07;;;;;;;46.20;25.58;;;;;;;13.28;100.00;101464.56;10421111;28;20032;-76
2023/03/19 12:31:33;;;;;;;38.22;23.02;;;;;;;13.09;100.00;101471.53;10420447;28;20037;-76
2023/03/19 12:36:37;;;;;;;40.33;20.90;;;;;;;13.02;100.00;101473.38;10401974;28;20412;-76
2023/03/19 12:41:40;;;;;;;34.80;19.80;;;;;;;12.74;100.00;101468.81;10403011;28;20041;-75
2023/03/19 12:47:06;;;;;;;41.30;21.98;;;;;;;12.96;100.00;101468.75;10418395;28;20033;-74
2023/03/19 12:52:23;;;;;;;31.88;20.15;;;;;;;13.17;100.00;101484.97;10403452;28;20029;-73
2023/03/19 12:57:31;;;;;;;46.75;21.55;;;;;;;13.42;100.00;101488.06;10417812;28;20425;-75
2023/03/19 13:02:52;;;;;;;26.75;17.05;;;;;;;13.55;100.00;101506.31;10416988;28;20030;-74
2023/03/19 13:08:19;;;;;;;29.33;16.38;;;;;;;13.32;100.00;101516.69;10403336;28;20083;-74
2023/03/19 13:13:27;;;;;;;29.00;15.45;;;;;;;12.99;100.00;101509.97;10418466;28;20032;-74
2023/03/19 13:19:19;;;;;;;24.50;15.05;;;;;;;12.90;100.00;101499.44;10401888;28;20026;-74
2023/03/19 13:24:33;;;;;;;11.60;10.30;;;;;;;12.73;100.00;101502.47;10400634;28;20041;-75
2023/03/19 13:29:35;;;;;;;19.75;14.05;;;;;;;12.59;100.00;101506.09;10400669;28;20041;-74
2023/03/19 13:34:36;;;;;;;16.90;11.63;;;;;;;12.51;100.00;101500.81;10400134;28;20037;-73
2023/03/19 13:39:36;;;;;;;19.23;12.27;;;;;;;12.42;100.00;101516.41;10399080;28;20136;-74
2023/03/19 13:44:51;;;;;;;42.08;15.13;;;;;;;12.31;100.00;101525.03;10416213;28;20033;-74
2023/03/19 13:50:17;;;;;;;26.67;14.23;;;;;;;12.42;100.00;101532.69;10418575;28;20040;-74
2023/03/19 13:55:27;;;;;;;28.70;15.03;;;;;;;12.54;100.00;101536.56;10402221;28;20040;-74
2023/03/19 14:00:55;;;;;;;21.67;12.43;;;;;;;12.23;100.00;101545.03;10416606;28;20282;-74
2023/03/19 14:05:56;;;;;;;26.52;12.63;;;;;;;11.94;100.00;101555.97;10415676;28;20449;-73
2023/03/19 14:10:59;;;;;;;17.65;11.50;;;;;;;11.80;100.00;101558.47;10399611;28;20033;-73
2023/03/19 14:16:21;;;;;;;14.10;9.80;;;;;;;11.64;100.00;101548.66;10398220;28;20037;-72
2023/03/19 14:21:33;;;;;;;10.15;7.43;;;;;;;11.39;100.00;101550.84;10401003;28;20029;-73
2023/03/19 14:26:33;;;;;;;13.40;9.27;;;;;;;11.19;100.00;101552.41;10416883;28;20025;-72
2023/03/19 14:31:56;;;;;;;14.90;9.25;;;;;;;11.16;100.00;101564.47;10415974;28;20388;-72
2023/03/19 14:36:59;;;;;;;11.20;7.95;;;;;;;11.07;100.00;101572.88;10413918;28;20076;-72
2023/03/19 14:42:30;;;;;;;11.05;8.80;;;;;;;10.87;100.00;101573.38;10415562;28;20503;-73
2023/03/19 14:47:45;;;;;;;8.75;7.55;;;;;;;10.73;100.00;101593.16;10399310;28;20508;-73
2023/03/19 14:53:05;;;;;;;12.50;8.98;;;;;;;10.65;100.00;101574.25;10415237;28;20087;-73
2023/03/19 14:58:09;;;;;;;15.82;10.38;;;;;;;10.69;100.00;101589.16;10405314;28;20041;-73
2023/03/19 15:03:33;;;;;;;17.15;10.43;;;;;;;10.72;100.00;101591.50;10414981;28;20037;-74
2023/03/19 15:08:35;;;;;;;14.38;9.15;;;;;;;10.81;100.00;101595.78;10399036;28;20049;-74
2023/03/19 15:13:48;;;;;;;23.25;10.77;;;;;;;11.06;100.00;101579.31;10418764;28;20041;-73
2023/03/19 15:18:49;;;;;;;14.35;9.38;;;;;;;11.30;100.00;101576.38;10422306;28;20026;-74
2023/03/19 15:23:50;;;;;;;17.52;10.93;;;;;;;11.38;100.00;101579.00;10422371;28;20124;-73
2023/03/19 15:28:51;;;;;;;15.40;10.02;;;;;;;11.31;100.00;101583.47;10421621;28;20037;-74
2023/03/19 15:33:51;;;;;;;16.50;10.38;;;;;;;11.15;100.00;101586.34;10422461;28;20029;-73
2023/03/19 15:38:54;;;;;;;15.10;11.05;;;;;;;10.96;100.00;101581.47;10404546;28;20140;-75
2023/03/19 15:43:55;;;;;;;19.58;11.02;;;;;;;10.71;100.00;101597.91;10422000;28;20116;-74
2023/03/19 15:49:14;;;;;;;23.27;12.15;;;;;;;10.48;100.00;101596.06;10437263;28;20128;-74
2023/03/19 15:54:16;;;;;;;20.30;12.55;;;;;;;10.35;100.00;101611.22;10405659;28;20515;-74
2023/03/19 15:59:18;;;;;;;40.42;13.57;;;;;;;10.19;100.00;101628.34;10422681;28;20091;-73
2023/03/19 16:04:22;;;;;;;26.17;14.10;;;;;;;10.09;100.00;101630.44;10421768;28;20064;-73
2023/03/19 16:09:35;;;;;;;28.73;15.38;;;;;;;9.91;100.00;101638.78;10419978;28;20040;-75
2023/03/19 16:14:39;;;;;;;25.80;13.40;;;;;;;9.73;100.00;101655.25;10404563;28;20029;-74
2023/03/19 16:19:49;;;;;;;20.42;14.63;;;;;;;9.58;100.00;101657.84;10419761;28;20076;-74
2023/03/19 16:24:50;;;;;;;29.85;15.70;;;;;;;9.55;100.00;101666.28;10419994;28;20030;-74
2023/03/19 16:29:58;;;;;;;28.70;16.08;;;;;;;9.41;100.00;101680.50;10418925;28;20037;-74
2023/03/19 16:35:19;;;;;;;31.15;18.42;;;;;;;9.37;100.00;101685.41;10387760;28;20037;-74
2023/03/19 16:40:19;;;;;;;32.67;16.00;;;;;;;9.30;100.00;101692.50;10418593;28;20049;-74
2023/03/19 16:45:39;;;;;;;30.08;15.40;;;;;;;9.29;100.00;101707.03;10419648;28;20034;-74
2023/03/19 16:50:40;;;;;;;35.90;17.45;;;;;;;9.22;100.00;101708.72;10419916;28;20029;-74
2023/03/19 16:55:41;;;;;;;28.90;15.27;;;;;;;9.16;100.00;101717.53;10401432;28;20040;-74
2023/03/19 17:00:42;;;;;;;24.50;14.23;;;;;;;9.10;100.00;101724.44;10419022;28;20142;-74
2023/03/19 17:05:43;;;;;;;20.08;11.85;;;;;;;9.02;100.00;101732.50;10387444;28;20037;-74
2023/03/19 17:10:49;;;;;;;31.00;12.02;;;;;;;8.96;100.00;101743.97;10417549;28;20555;-74
2023/03/19 17:15:50;;;;;;;13.33;8.33;;;;;;;8.92;100.00;101761.53;10401101;28;20032;-75
2023/03/19 17:21:13;;;;;;;25.02;9.70;;;;;;;8.83;100.00;101766.06;10416988;28;20032;-75
2023/03/19 17:26:21;;;;;;;18.20;9.85;;;;;;;8.73;100.00;101774.31;10417831;28;20076;-74
2023/03/19 17:31:27;;;;;;;13.15;6.95;;;;;;;8.64;100.00;101777.16;10402903;28;20503;-75
2023/03/19 17:36:28;;;;;;;12.52;7.57;;;;;;;8.52;100.00;101790.97;10414939;28;20034;-75
2023/03/19 17:41:29;;;;;;;19.83;6.03;;;;;;;8.45;100.00;101795.28;10416296;28;20033;-75
2023/03/19 17:46:29;;;;;;;9.93;6.55;;;;;;;8.48;100.00;101805.75;10399704;28;20480;-75
2023/03/19 17:51:30;;;;;;;13.48;7.03;;;;;;;8.42;100.00;101808.25;10415877;28;20116;-75
2023/03/19 17:56:30;;;;;;;12.48;6.00;;;;;;;8.44;100.00;101806.25;10415041;28;20500;-75
2023/03/19 18:01:31;;;;;;;13.43;7.00;;;;;;;8.43;100.00;101815.38;10399560;28;20033;-75
2023/03/19 18:06:33;;;;;;;25.60;9.23;;;;;;;8.46;100.00;101823.16;10400132;28;20120;-75
2023/03/19 18:11:34;;;;;;;11.73;7.45;;;;;;;8.38;100.00;101826.63;10401761;28;20045;-75
2023/03/19 18:16:34;;;;;;;14.52;7.68;;;;;;;8.32;100.00;101841.56;10397930;28;20481;-75
2023/03/19 18:21:40;;;;;;;27.15;8.23;;;;;;;8.29;100.00;101835.66;10414612;28;20036;-75
2023/03/19 18:26:41;;;;;;;19.52;7.97;;;;;;;8.33;100.00;101850.56;10415288;28;20049;-75
2023/03/19 18:31:42;;;;;;;21.17;7.93;;;;;;;8.32;100.00;101848.84;10416342;28;20041;-74
2023/03/19 18:36:43;;;;;;;10.13;6.82;;;;;;;8.35;100.00;101862.00;10380840;28;20454;-74
2023/03/19 18:41:43;;;;;;;10.23;5.13;;;;;;;8.29;100.00;101865.34;10399311;28;20096;-74
2023/03/19 18:46:44;;;;;;;14.70;6.57;;;;;;;8.28;100.00;101863.66;10398192;28;20441;-74
2023/03/19 18:51:44;;;;;;;14.35;5.22;;;;;;;8.30;100.00;101872.44;10397572;28;20033;-73
2023/03/19 18:56:45;;;;;;;9.90;5.25;;;;;;;8.27;100.00;101881.72;10415038;28;20417;-74
2023/03/19 19:01:46;;;;;;;6.70;5.50;;;;;;;8.31;100.00;101874.13;10412894;28;20033;-75
2023/03/19 19:06:47;;;;;;;10.43;5.38;;;;;;;8.26;100.00;101877.28;10380875;28;20393;-75
2023/03/19 19:11:47;;;;;;;11.82;5.70;;;;;;;8.26;100.00;101871.06;10416401;28;20075;-74
2023/03/19 19:16:48;;;;;;;12.77;5.57;;;;;;;8.26;100.00;101873.75;10416130;28;20069;-74
2023/03/19 19:21:49;;;;;;;10.88;5.82;;;;;;;8.24;100.00;101881.19;10413942;28;20037;-74
2023/03/19 19:26:52;;;;;;;11.45;5.55;;;;;;;8.22;100.00;101881.31;10412750;28;20052;-74
2023/03/19 19:31:52;;;;;;;13.82;5.72;;;;;;;8.16;100.00;101884.66;10413368;28;20041;-75
2023/03/19 19:36:56;;;;;;;12.05;5.47;;;;;;;8.11;100.00;101900.47;10414095;28;20041;-74
2023/03/19 19:41:57;;;;;;;11.88;4.07;;;;;;;8.10;100.00;101901.47;10414137;28;20091;-74
2023/03/19 19:46:57;;;;;;;10.85;5.68;;;;;;;8.08;100.00;101912.44;10413422;28;20065;-74
2023/03/19 19:51:58;;;;;;;13.15;5.47;;;;;;;8.08;100.00;101917.81;10412735;28;20045;-75
2023/03/19 19:56:58;;;;;;;10.23;4.88;;;;;;;8.07;100.00;101915.25;10414534;28;20076;-74
2023/03/19 20:01:59;;;;;;;9.43;5.85;;;;;;;8.07;100.00;101924.22;10387845;28;20034;-75
2023/03/19 20:06:59;;;;;;;8.18;6.40;;;;;;;8.02;100.00;101926.53;10420805;28;20038;-75
2023/03/19 20:12:01;;;;;;;20.05;5.55;;;;;;;8.08;100.00;101938.56;10403349;28;20091;-75
2023/03/19 20:17:04;;;;;;;11.20;7.20;;;;;;;8.07;100.00;101935.03;10422258;28;20048;-75
2023/03/19 20:22:04;;;;;;;16.98;8.05;;;;;;;8.02;100.00;101934.63;10420340;28;20432;-75
2023/03/19 20:27:15;;;;;;;6.82;5.22;;;;;;;8.06;100.00;101930.59;10405023;28;20075;-75
2023/03/19 20:32:35;;;;;;;12.95;6.18;;;;;;;8.05;100.00;101934.31;10418816;28;20488;-75
2023/03/19 20:37:36;;;;;;;15.98;5.13;;;;;;;8.05;100.00;101936.16;10404464;28;20049;-75
2023/03/19 20:42:37;;;;;;;13.00;5.70;;;;;;;8.03;100.00;101933.63;10419915;28;20082;-75
2023/03/19 20:47:38;;;;;;;10.13;4.40;;;;;;;8.04;100.00;101927.25;10403472;28;20469;-74
2023/03/19 20:52:39;;;;;;;14.23;7.07;;;;;;;8.05;100.00;101931.63;10419920;28;20045;-74
2023/03/19 20:57:40;;;;;;;12.20;6.05;;;;;;;8.10;100.00;101936.53;10419461;28;20533;-75
2023/03/19 21:02:40;;;;;;;15.25;6.05;;;;;;;8.10;100.00;101931.13;10419690;28;20029;-75
2023/03/19 21:07:43;;;;;;;10.48;5.97;;;;;;;8.10;100.00;101923.91;10419728;28;20037;-75
2023/03/19 21:12:43;;;;;;;19.15;5.93;;;;;;;8.11;100.00;101925.59;10418854;28;20044;-74
2023/03/19 21:17:43;;;;;;;16.80;6.90;;;;;;;8.11;100.00;101925.59;10418797;28;20495;-74
2023/03/19 21:22:46;;;;;;;13.63;7.45;;;;;;;8.09;100.00;101916.81;10421181;28;20037;-75
2023/03/19 21:27:50;;;;;;;16.45;7.50;;;;;;;8.15;100.00;101926.13;10384458;28;20479;-75
2023/03/19 21:32:51;;;;;;;13.27;8.00;;;;;;;8.16;100.00;101925.97;10416769;28;20033;-75
2023/03/19 21:37:52;;;;;;;11.23;6.38;;;;;;;8.12;100.00;101923.75;10416312;28;20128;-74
2023/03/19 21:42:55;;;;;;;18.63;8.00;;;;;;;8.07;100.00;101929.63;10416473;28;20061;-74
2023/03/19 21:48:06;;;;;;;14.93;8.38;;;;;;;8.05;100.00;101928.91;10400223;28;20033;-74
2023/03/19 21:53:07;;;;;;;20.65;8.85;;;;;;;8.04;100.00;101921.84;10416686;28;20041;-74
2023/03/19 21:58:11;;;;;;;15.73;8.07;;;;;;;8.07;100.00;101926.94;10416247;28;20435;-73
2023/03/19 22:03:15;;;;;;;17.42;8.30;;;;;;;8.00;100.00;101936.63;10415557;28;20365;-75
2023/03/19 22:08:17;;;;;;;10.63;7.13;;;;;;;8.02;100.00;101942.72;10414877;28;20037;-74
2023/03/19 22:13:20;;;;;;;15.98;9.38;;;;;;;8.02;100.00;101934.63;10415207;28;20412;-74
2023/03/19 22:18:21;;;;;;;8.43;7.07;;;;;;;8.02;100.00;101956.22;10398813;28;20034;-75
2023/03/19 22:23:21;;;;;;;13.45;6.90;;;;;;;8.03;100.00;101933.63;10414418;28;20041;-75
2023/03/19 22:28:29;;;;;;;10.45;7.72;;;;;;;8.03;100.00;101951.66;10418184;28;20044;-74
2023/03/19 22:33:30;;;;;;;14.25;7.82;;;;;;;8.01;100.00;101945.56;10415259;28;20473;-74
2023/03/19 22:38:32;;;;;;;12.73;7.18;;;;;;;7.99;100.00;101952.97;10414952;28;20136;-75
2023/03/19 22:43:33;;;;;;;10.48;6.60;;;;;;;7.92;100.00;101964.38;10414222;28;20492;-74
2023/03/19 22:48:34;;;;;;;18.95;7.97;;;;;;;7.88;100.00;101964.81;10381448;28;20056;-75